NWS059 UUEE-UWKD
Flight info
| Callsign | NWS059 |
|---|---|
| Flight time | N/A |
| Altitude | 37000 |
| Route | KOGOM3J KOGOM L94 EKPIR M864 INKEB L94 UNORO T788 KOROM KOROM1T |
| Aircraft | B738/M-SJ4GIRWYBL/B1L |
Departure
| Time | 2026-05-05 15:05 |
|---|---|
| Airport | Sheremetyevo International Airport (UUEE) |
Arrival
| Time | N/A |
|---|---|
| Airport | Kazan International Airport (UWKD) |
| Time | Latitude | Longitude | Altitude | Speed | Heading |
|---|---|---|---|---|---|
| 2026-05-05 14:13 | 55.97985 | 37.41235 | 638 ft | 0 kts | 255° |
| 2026-05-05 14:53 | 55.97988 | 37.41258 | 809 ft | 4 kts | 251° |
| 2026-05-05 14:53 | 55.98000 | 37.41300 | 620 ft | 4 kts | 220° |
| 2026-05-05 14:53 | 55.98019 | 37.41314 | 609 ft | 2 kts | 165° |
| 2026-05-05 14:53 | 55.98020 | 37.41313 | 610 ft | 0 kts | 165° |
| 2026-05-05 14:57 | 55.98019 | 37.41314 | 609 ft | 1 kts | 165° |
| 2026-05-05 14:57 | 55.98004 | 37.41321 | 641 ft | 4 kts | 165° |
| 2026-05-05 14:58 | 55.97966 | 37.41339 | 638 ft | 7 kts | 164° |
| 2026-05-05 14:58 | 55.97907 | 37.41368 | 641 ft | 10 kts | 165° |
| 2026-05-05 14:58 | 55.97840 | 37.41401 | 638 ft | 10 kts | 165° |
| 2026-05-05 14:58 | 55.97769 | 37.41434 | 641 ft | 11 kts | 165° |
| 2026-05-05 14:59 | 55.97691 | 37.41477 | 643 ft | 12 kts | 146° |
| 2026-05-05 14:59 | 55.97651 | 37.41594 | 642 ft | 12 kts | 156° |
| 2026-05-05 14:59 | 55.97612 | 37.41700 | 640 ft | 12 kts | 81° |
| 2026-05-05 14:59 | 55.97633 | 37.41844 | 646 ft | 12 kts | 75° |
| 2026-05-05 15:00 | 55.97656 | 37.41997 | 640 ft | 13 kts | 75° |
| 2026-05-05 15:00 | 55.97672 | 37.42106 | 638 ft | 14 kts | 75° |
| 2026-05-05 15:00 | 55.97706 | 37.42333 | 646 ft | 15 kts | 75° |
| 2026-05-05 15:00 | 55.97734 | 37.42515 | 641 ft | 16 kts | 75° |
| 2026-05-05 15:01 | 55.97761 | 37.42698 | 643 ft | 15 kts | 75° |
| 2026-05-05 15:01 | 55.97788 | 37.42874 | 638 ft | 14 kts | 75° |
| 2026-05-05 15:01 | 55.97813 | 37.43043 | 640 ft | 14 kts | 75° |
| 2026-05-05 15:01 | 55.97837 | 37.43205 | 645 ft | 13 kts | 75° |
| 2026-05-05 15:02 | 55.97861 | 37.43362 | 640 ft | 13 kts | 75° |
| 2026-05-05 15:02 | 55.97883 | 37.43513 | 638 ft | 12 kts | 75° |
| 2026-05-05 15:02 | 55.97905 | 37.43660 | 639 ft | 12 kts | 75° |
| 2026-05-05 15:02 | 55.97927 | 37.43804 | 641 ft | 12 kts | 75° |
| 2026-05-05 15:03 | 55.97945 | 37.43926 | 640 ft | 8 kts | 75° |
| 2026-05-05 15:03 | 55.97936 | 37.44018 | 643 ft | 8 kts | 136° |
| 2026-05-05 15:03 | 55.97878 | 37.44055 | 638 ft | 10 kts | 165° |
| 2026-05-05 15:03 | 55.97827 | 37.44078 | 639 ft | 11 kts | 167° |
| 2026-05-05 15:04 | 55.97780 | 37.44014 | 641 ft | 11 kts | 257° |
| 2026-05-05 15:04 | 55.97776 | 37.43987 | 644 ft | 0 kts | 255° |
| 2026-05-05 15:04 | 55.97775 | 37.43980 | 643 ft | 6 kts | 255° |
| 2026-05-05 15:04 | 55.97700 | 37.43474 | 640 ft | 79 kts | 255° |
| 2026-05-05 15:05 | 55.97197 | 37.40133 | 806 ft | 181 kts | 255° |
| 2026-05-05 15:05 | 55.96860 | 37.37974 | 1680 ft | 178 kts | 255° |
| 2026-05-05 15:05 | 55.96542 | 37.35868 | 2717 ft | 175 kts | 255° |
| 2026-05-05 15:06 | 55.96222 | 37.33802 | 3758 ft | 170 kts | 254° |
| 2026-05-05 15:06 | 55.95893 | 37.31722 | 4575 ft | 176 kts | 254° |
| 2026-05-05 15:06 | 55.95539 | 37.29486 | 4965 ft | 199 kts | 254° |
| 2026-05-05 15:06 | 55.95139 | 37.26968 | 5334 ft | 220 kts | 254° |
| 2026-05-05 15:07 | 55.94699 | 37.24191 | 5739 ft | 244 kts | 255° |
| 2026-05-05 15:07 | 55.94244 | 37.21314 | 6597 ft | 247 kts | 255° |
| 2026-05-05 15:07 | 55.93790 | 37.18433 | 7559 ft | 247 kts | 255° |
| 2026-05-05 15:07 | 55.93324 | 37.15473 | 8487 ft | 249 kts | 255° |
| 2026-05-05 15:08 | 55.92851 | 37.12479 | 9333 ft | 254 kts | 255° |
| 2026-05-05 15:08 | 55.92362 | 37.09393 | 10222 ft | 256 kts | 255° |
| 2026-05-05 15:08 | 55.91875 | 37.06317 | 11031 ft | 260 kts | 256° |
| 2026-05-05 15:08 | 55.91747 | 37.03097 | 11772 ft | 266 kts | 278° |
| 2026-05-05 15:09 | 55.92378 | 36.99976 | 12592 ft | 273 kts | 296° |
| 2026-05-05 15:09 | 55.93626 | 36.97339 | 13374 ft | 287 kts | 316° |
| 2026-05-05 15:09 | 55.95267 | 36.95250 | 14117 ft | 292 kts | 320° |
| 2026-05-05 15:09 | 55.96978 | 36.93233 | 14834 ft | 299 kts | 326° |
| 2026-05-05 15:10 | 55.99009 | 36.92122 | 15514 ft | 316 kts | 349° |
| 2026-05-05 15:10 | 56.01203 | 36.92578 | 16221 ft | 332 kts | 13° |
| 2026-05-05 15:10 | 56.03280 | 36.94548 | 16940 ft | 343 kts | 29° |
| 2026-05-05 15:10 | 56.05300 | 36.96997 | 17632 ft | 348 kts | 30° |
| 2026-05-05 15:11 | 56.07293 | 36.99408 | 18270 ft | 353 kts | 29° |
| 2026-05-05 15:11 | 56.09373 | 37.01880 | 18891 ft | 355 kts | 28° |
| 2026-05-05 15:11 | 56.11285 | 37.04729 | 19494 ft | 366 kts | 48° |
| 2026-05-05 15:11 | 56.12555 | 37.08760 | 19847 ft | 384 kts | 71° |
| 2026-05-05 15:12 | 56.13224 | 37.13508 | 20069 ft | 400 kts | 76° |
| 2026-05-05 15:12 | 56.13854 | 37.18403 | 20563 ft | 406 kts | 76° |
| 2026-05-05 15:12 | 56.14470 | 37.23357 | 21181 ft | 408 kts | 82° |
| 2026-05-05 15:12 | 56.14370 | 37.28437 | 21753 ft | 410 kts | 105° |
| 2026-05-05 15:13 | 56.13314 | 37.33143 | 22339 ft | 406 kts | 126° |
| 2026-05-05 15:13 | 56.11527 | 37.36979 | 22888 ft | 402 kts | 143° |
| 2026-05-05 15:13 | 56.09207 | 37.39702 | 23406 ft | 396 kts | 160° |
| 2026-05-05 15:13 | 56.06705 | 37.41757 | 23897 ft | 397 kts | 161° |
| 2026-05-05 15:14 | 56.04163 | 37.43785 | 24371 ft | 400 kts | 161° |
| 2026-05-05 15:14 | 56.01590 | 37.45886 | 24855 ft | 403 kts | 160° |
| 2026-05-05 15:14 | 55.99084 | 37.47973 | 25316 ft | 406 kts | 160° |
| 2026-05-05 15:14 | 55.96594 | 37.50316 | 25754 ft | 415 kts | 148° |
| 2026-05-05 15:15 | 55.94491 | 37.54148 | 26173 ft | 429 kts | 127° |
| 2026-05-05 15:15 | 55.93221 | 37.58983 | 26628 ft | 437 kts | 106° |
| 2026-05-05 15:15 | 55.92633 | 37.64396 | 27122 ft | 439 kts | 101° |
| 2026-05-05 15:15 | 55.92115 | 37.69792 | 27519 ft | 443 kts | 101° |
| 2026-05-05 15:16 | 55.91422 | 37.75140 | 27867 ft | 445 kts | 114° |
| 2026-05-05 15:16 | 55.90012 | 37.80039 | 28288 ft | 443 kts | 123° |
| 2026-05-05 15:16 | 55.88457 | 37.84771 | 28757 ft | 444 kts | 123° |
| 2026-05-05 15:16 | 55.86896 | 37.89547 | 29147 ft | 447 kts | 123° |
| 2026-05-05 15:17 | 55.85347 | 37.94382 | 29508 ft | 451 kts | 122° |
| 2026-05-05 15:17 | 55.83812 | 37.99255 | 29864 ft | 453 kts | 122° |
| 2026-05-05 15:17 | 55.82274 | 38.04162 | 30210 ft | 455 kts | 122° |
| 2026-05-05 15:17 | 55.80740 | 38.09102 | 30543 ft | 458 kts | 118° |
| 2026-05-05 15:18 | 55.79704 | 38.14478 | 30800 ft | 464 kts | 100° |
| 2026-05-05 15:18 | 55.79580 | 38.20248 | 30893 ft | 472 kts | 86° |
| 2026-05-05 15:18 | 55.79804 | 38.26112 | 30989 ft | 479 kts | 86° |
| 2026-05-05 15:19 | 55.80158 | 38.38105 | 31162 ft | 492 kts | 87° |
| 2026-05-05 15:19 | 55.80576 | 38.44141 | 31286 ft | 495 kts | 74° |
| 2026-05-05 15:19 | 55.81628 | 38.49964 | 31634 ft | 493 kts | 69° |
| 2026-05-05 15:19 | 55.82777 | 38.55685 | 32072 ft | 490 kts | 69° |
| 2026-05-05 15:20 | 55.83884 | 38.61419 | 32482 ft | 489 kts | 70° |
| 2026-05-05 15:20 | 55.84931 | 38.67173 | 32784 ft | 489 kts | 71° |
| 2026-05-05 15:20 | 55.85977 | 38.72932 | 33098 ft | 488 kts | 68° |
| 2026-05-05 15:20 | 55.87287 | 38.78492 | 33425 ft | 487 kts | 63° |
| 2026-05-05 15:21 | 55.88780 | 38.83891 | 33778 ft | 485 kts | 61° |
| 2026-05-05 15:21 | 55.90314 | 38.89244 | 34057 ft | 485 kts | 61° |
| 2026-05-05 15:21 | 55.91822 | 38.94621 | 34288 ft | 486 kts | 62° |
| 2026-05-05 15:21 | 55.92801 | 38.98222 | 34434 ft | 486 kts | 63° |
| 2026-05-05 15:22 | 55.94247 | 39.03670 | 34680 ft | 486 kts | 63° |
| 2026-05-05 15:22 | 55.96097 | 39.10934 | 35029 ft | 486 kts | 69° |
| 2026-05-05 15:22 | 55.96863 | 39.16823 | 35196 ft | 489 kts | 84° |
| 2026-05-05 15:22 | 55.97143 | 39.22856 | 35477 ft | 487 kts | 86° |
| 2026-05-05 15:23 | 55.97306 | 39.26921 | 35651 ft | 487 kts | 86° |
| 2026-05-05 15:23 | 55.97561 | 39.32958 | 35882 ft | 487 kts | 85° |
| 2026-05-05 15:23 | 55.97844 | 39.38971 | 36147 ft | 486 kts | 85° |
| 2026-05-05 15:23 | 55.98152 | 39.44980 | 36416 ft | 485 kts | 84° |
| 2026-05-05 15:24 | 55.98472 | 39.50962 | 36659 ft | 484 kts | 84° |
| 2026-05-05 15:24 | 55.98792 | 39.56953 | 36831 ft | 485 kts | 84° |
| 2026-05-05 15:24 | 55.99109 | 39.62964 | 36818 ft | 488 kts | 83° |
| 2026-05-05 15:24 | 55.99818 | 39.68889 | 36803 ft | 487 kts | 67° |
| 2026-05-05 15:25 | 56.01286 | 39.74289 | 36854 ft | 482 kts | 63° |
| 2026-05-05 15:25 | 56.02513 | 39.79873 | 36815 ft | 484 kts | 74° |
| 2026-05-05 15:25 | 56.02784 | 39.81766 | 36827 ft | 484 kts | 77° |